sensor_id;sensor_type;location;lat;lon;timestamp;temperature;humidity
24035;DHT22;12242;50.952;4.678;2023-06-26T00:00:12;22.40;99.90
24035;DHT22;12242;50.952;4.678;2023-06-26T00:02:43;22.50;99.90
24035;DHT22;12242;50.952;4.678;2023-06-26T00:05:10;22.40;99.90
24035;DHT22;12242;50.952;4.678;2023-06-26T00:07:40;22.40;99.90
24035;DHT22;12242;50.952;4.678;2023-06-26T00:10:08;22.40;99.90
24035;DHT22;12242;50.952;4.678;2023-06-26T00:12:35;22.30;99.90
24035;DHT22;12242;50.952;4.678;2023-06-26T00:15:04;22.20;99.90
24035;DHT22;12242;50.952;4.678;2023-06-26T00:17:34;22.10;99.90
24035;DHT22;12242;50.952;4.678;2023-06-26T00:20:05;22.20;99.90
24035;DHT22;12242;50.952;4.678;2023-06-26T00:22:32;22.20;99.90
24035;DHT22;12242;50.952;4.678;2023-06-26T00:25:00;22.10;99.90
24035;DHT22;12242;50.952;4.678;2023-06-26T00:27:28;22.10;99.90
24035;DHT22;12242;50.952;4.678;2023-06-26T00:29:56;22.10;99.90
24035;DHT22;12242;50.952;4.678;2023-06-26T00:32:27;21.90;99.90
24035;DHT22;12242;50.952;4.678;2023-06-26T00:34:55;21.70;99.90
24035;DHT22;12242;50.952;4.678;2023-06-26T00:37:23;21.60;99.90
24035;DHT22;12242;50.952;4.678;2023-06-26T00:39:50;21.70;99.90
24035;DHT22;12242;50.952;4.678;2023-06-26T00:42:18;21.70;99.90
24035;DHT22;12242;50.952;4.678;2023-06-26T00:44:46;21.70;99.90
24035;DHT22;12242;50.952;4.678;2023-06-26T00:47:15;21.70;99.90
24035;DHT22;12242;50.952;4.678;2023-06-26T00:49:46;21.50;99.90
24035;DHT22;12242;50.952;4.678;2023-06-26T00:52:14;21.40;99.90
24035;DHT22;12242;50.952;4.678;2023-06-26T00:54:41;21.30;99.90
24035;DHT22;12242;50.952;4.678;2023-06-26T00:57:09;21.20;99.90
24035;DHT22;12242;50.952;4.678;2023-06-26T00:59:37;21.20;99.90
24035;DHT22;12242;50.952;4.678;2023-06-26T01:02:07;21.30;99.90
24035;DHT22;12242;50.952;4.678;2023-06-26T01:04:39;21.20;99.90
24035;DHT22;12242;50.952;4.678;2023-06-26T01:07:15;21.10;99.90
24035;DHT22;12242;50.952;4.678;2023-06-26T01:09:44;21.10;99.90
24035;DHT22;12242;50.952;4.678;2023-06-26T01:12:12;21.10;99.90
24035;DHT22;12242;50.952;4.678;2023-06-26T01:14:39;21.10;99.90
24035;DHT22;12242;50.952;4.678;2023-06-26T01:17:07;21.00;99.90
24035;DHT22;12242;50.952;4.678;2023-06-26T01:19:39;21.10;99.90
24035;DHT22;12242;50.952;4.678;2023-06-26T01:27:40;20.80;99.90
24035;DHT22;12242;50.952;4.678;2023-06-26T01:30:12;20.70;99.90
24035;DHT22;12242;50.952;4.678;2023-06-26T01:32:40;20.70;99.90
24035;DHT22;12242;50.952;4.678;2023-06-26T01:35:09;20.60;99.90
24035;DHT22;12242;50.952;4.678;2023-06-26T01:37:40;20.60;99.90
24035;DHT22;12242;50.952;4.678;2023-06-26T01:40:08;20.60;99.90
24035;DHT22;12242;50.952;4.678;2023-06-26T01:42:37;20.50;99.90
24035;DHT22;12242;50.952;4.678;2023-06-26T01:45:12;20.50;99.90
24035;DHT22;12242;50.952;4.678;2023-06-26T01:47:47;20.60;99.90
24035;DHT22;12242;50.952;4.678;2023-06-26T01:50:24;20.40;99.90
24035;DHT22;12242;50.952;4.678;2023-06-26T01:55:47;20.30;99.90
24035;DHT22;12242;50.952;4.678;2023-06-26T01:58:15;20.40;99.90
24035;DHT22;12242;50.952;4.678;2023-06-26T02:00:44;20.30;99.90
24035;DHT22;12242;50.952;4.678;2023-06-26T02:03:12;20.40;99.90
24035;DHT22;12242;50.952;4.678;2023-06-26T02:05:42;20.20;99.90
24035;DHT22;12242;50.952;4.678;2023-06-26T02:08:13;20.30;99.90
24035;DHT22;12242;50.952;4.678;2023-06-26T02:10:40;20.20;99.90
24035;DHT22;12242;50.952;4.678;2023-06-26T02:13:08;20.20;99.90
24035;DHT22;12242;50.952;4.678;2023-06-26T02:15:37;20.20;99.90
24035;DHT22;12242;50.952;4.678;2023-06-26T02:18:04;20.10;99.90
24035;DHT22;12242;50.952;4.678;2023-06-26T02:20:32;20.20;99.90
24035;DHT22;12242;50.952;4.678;2023-06-26T02:23:00;20.20;99.90
24035;DHT22;12242;50.952;4.678;2023-06-26T02:25:28;20.10;99.90
24035;DHT22;12242;50.952;4.678;2023-06-26T02:27:55;20.00;99.90
24035;DHT22;12242;50.952;4.678;2023-06-26T02:30:22;20.00;99.90
24035;DHT22;12242;50.952;4.678;2023-06-26T02:32:50;20.00;99.90
24035;DHT22;12242;50.952;4.678;2023-06-26T02:35:17;20.10;99.90
24035;DHT22;12242;50.952;4.678;2023-06-26T02:37:47;19.90;99.90
24035;DHT22;12242;50.952;4.678;2023-06-26T02:40:14;19.80;99.90
24035;DHT22;12242;50.952;4.678;2023-06-26T02:42:42;19.70;99.90
24035;DHT22;12242;50.952;4.678;2023-06-26T02:45:10;19.80;99.90
24035;DHT22;12242;50.952;4.678;2023-06-26T02:47:37;19.80;99.90
24035;DHT22;12242;50.952;4.678;2023-06-26T02:50:07;19.80;99.90
24035;DHT22;12242;50.952;4.678;2023-06-26T02:52:35;19.70;99.90
24035;DHT22;12242;50.952;4.678;2023-06-26T02:55:05;19.60;99.90
24035;DHT22;12242;50.952;4.678;2023-06-26T02:57:32;19.60;99.90
24035;DHT22;12242;50.952;4.678;2023-06-26T03:00:00;19.80;99.90
24035;DHT22;12242;50.952;4.678;2023-06-26T03:02:28;19.90;99.90
24035;DHT22;12242;50.952;4.678;2023-06-26T03:04:59;19.90;99.90
24035;DHT22;12242;50.952;4.678;2023-06-26T03:07:27;19.80;99.90
24035;DHT22;12242;50.952;4.678;2023-06-26T03:10:00;19.80;99.90
24035;DHT22;12242;50.952;4.678;2023-06-26T03:12:27;19.70;99.90
24035;DHT22;12242;50.952;4.678;2023-06-26T03:14:55;19.80;99.90
24035;DHT22;12242;50.952;4.678;2023-06-26T03:17:23;19.80;99.90
24035;DHT22;12242;50.952;4.678;2023-06-26T03:19:51;19.80;99.90
24035;DHT22;12242;50.952;4.678;2023-06-26T03:22:19;19.80;99.90
24035;DHT22;12242;50.952;4.678;2023-06-26T03:24:47;19.80;99.90
24035;DHT22;12242;50.952;4.678;2023-06-26T03:27:14;19.70;99.90
24035;DHT22;12242;50.952;4.678;2023-06-26T03:29:46;19.50;99.90
24035;DHT22;12242;50.952;4.678;2023-06-26T03:32:14;19.40;99.90
24035;DHT22;12242;50.952;4.678;2023-06-26T03:34:42;19.40;99.90
24035;DHT22;12242;50.952;4.678;2023-06-26T03:37:12;19.40;99.90
24035;DHT22;12242;50.952;4.678;2023-06-26T03:39:40;19.30;99.90
24035;DHT22;12242;50.952;4.678;2023-06-26T03:42:10;19.20;99.90
24035;DHT22;12242;50.952;4.678;2023-06-26T03:44:38;19.20;99.90
24035;DHT22;12242;50.952;4.678;2023-06-26T03:47:06;19.10;99.90
24035;DHT22;12242;50.952;4.678;2023-06-26T03:49:36;19.10;99.90
24035;DHT22;12242;50.952;4.678;2023-06-26T03:52:06;19.10;99.90
24035;DHT22;12242;50.952;4.678;2023-06-26T03:54:33;19.00;99.90
24035;DHT22;12242;50.952;4.678;2023-06-26T03:57:01;19.00;99.90
24035;DHT22;12242;50.952;4.678;2023-06-26T03:59:28;18.90;99.90
24035;DHT22;12242;50.952;4.678;2023-06-26T04:01:56;18.90;99.90
24035;DHT22;12242;50.952;4.678;2023-06-26T04:04:23;18.90;99.90
24035;DHT22;12242;50.952;4.678;2023-06-26T04:06:51;18.90;99.90
24035;DHT22;12242;50.952;4.678;2023-06-26T04:09:21;18.90;99.90
24035;DHT22;12242;50.952;4.678;2023-06-26T04:11:48;18.90;99.90
24035;DHT22;12242;50.952;4.678;2023-06-26T04:14:16;18.90;99.90
24035;DHT22;12242;50.952;4.678;2023-06-26T04:16:43;18.90;99.90
24035;DHT22;12242;50.952;4.678;2023-06-26T04:19:13;19.00;99.90
24035;DHT22;12242;50.952;4.678;2023-06-26T04:21:42;18.90;99.90
24035;DHT22;12242;50.952;4.678;2023-06-26T04:24:12;19.00;99.90
24035;DHT22;12242;50.952;4.678;2023-06-26T04:26:44;19.00;99.90
24035;DHT22;12242;50.952;4.678;2023-06-26T04:29:12;19.00;99.90
24035;DHT22;12242;50.952;4.678;2023-06-26T04:31:40;19.10;99.90
24035;DHT22;12242;50.952;4.678;2023-06-26T04:34:08;19.20;99.90
24035;DHT22;12242;50.952;4.678;2023-06-26T04:36:35;19.30;99.90
24035;DHT22;12242;50.952;4.678;2023-06-26T04:39:06;19.40;99.90
24035;DHT22;12242;50.952;4.678;2023-06-26T04:41:37;19.50;99.90
24035;DHT22;12242;50.952;4.678;2023-06-26T04:44:04;19.60;99.90
24035;DHT22;12242;50.952;4.678;2023-06-26T04:46:33;19.70;99.90
24035;DHT22;12242;50.952;4.678;2023-06-26T04:49:01;19.70;99.90
24035;DHT22;12242;50.952;4.678;2023-06-26T04:51:30;19.80;99.90
24035;DHT22;12242;50.952;4.678;2023-06-26T04:53:58;20.60;99.90
24035;DHT22;12242;50.952;4.678;2023-06-26T04:56:28;21.50;99.90
24035;DHT22;12242;50.952;4.678;2023-06-26T04:58:58;21.90;99.90
24035;DHT22;12242;50.952;4.678;2023-06-26T05:01:29;22.70;99.90
24035;DHT22;12242;50.952;4.678;2023-06-26T05:03:57;22.80;99.90
24035;DHT22;12242;50.952;4.678;2023-06-26T05:06:25;23.00;99.90
24035;DHT22;12242;50.952;4.678;2023-06-26T05:08:52;23.00;99.90
24035;DHT22;12242;50.952;4.678;2023-06-26T05:11:20;22.80;99.90
24035;DHT22;12242;50.952;4.678;2023-06-26T05:13:49;23.10;99.90
24035;DHT22;12242;50.952;4.678;2023-06-26T05:16:19;23.20;99.90
24035;DHT22;12242;50.952;4.678;2023-06-26T05:18:46;23.40;99.90
24035;DHT22;12242;50.952;4.678;2023-06-26T05:21:15;24.30;99.90
24035;DHT22;12242;50.952;4.678;2023-06-26T05:23:43;24.90;99.90
24035;DHT22;12242;50.952;4.678;2023-06-26T05:26:13;25.70;99.90
24035;DHT22;12242;50.952;4.678;2023-06-26T05:28:40;25.90;99.90
24035;DHT22;12242;50.952;4.678;2023-06-26T05:31:08;26.60;99.90
24035;DHT22;12242;50.952;4.678;2023-06-26T05:33:37;27.10;99.90
24035;DHT22;12242;50.952;4.678;2023-06-26T05:36:09;26.20;99.90
24035;DHT22;12242;50.952;4.678;2023-06-26T05:38:37;26.10;99.90
24035;DHT22;12242;50.952;4.678;2023-06-26T05:41:07;25.90;99.90
24035;DHT22;12242;50.952;4.678;2023-06-26T05:43:35;25.30;99.90
24035;DHT22;12242;50.952;4.678;2023-06-26T05:46:03;26.40;99.90
24035;DHT22;12242;50.952;4.678;2023-06-26T05:48:33;26.10;99.90
24035;DHT22;12242;50.952;4.678;2023-06-26T05:51:02;24.70;99.90
24035;DHT22;12242;50.952;4.678;2023-06-26T05:53:31;25.90;99.90
24035;DHT22;12242;50.952;4.678;2023-06-26T05:56:01;26.60;99.90
24035;DHT22;12242;50.952;4.678;2023-06-26T05:58:29;27.30;99.50
24035;DHT22;12242;50.952;4.678;2023-06-26T06:00:59;27.20;98.40
24035;DHT22;12242;50.952;4.678;2023-06-26T06:03:30;27.30;98.00
24035;DHT22;12242;50.952;4.678;2023-06-26T06:05:58;27.80;97.70
24035;DHT22;12242;50.952;4.678;2023-06-26T06:08:25;29.10;95.50
24035;DHT22;12242;50.952;4.678;2023-06-26T06:10:53;30.50;93.20
24035;DHT22;12242;50.952;4.678;2023-06-26T06:13:20;29.90;91.40
24035;DHT22;12242;50.952;4.678;2023-06-26T06:15:49;29.90;90.70
24035;DHT22;12242;50.952;4.678;2023-06-26T06:18:17;29.80;89.70
24035;DHT22;12242;50.952;4.678;2023-06-26T06:20:44;30.50;88.90
24035;DHT22;12242;50.952;4.678;2023-06-26T06:23:12;30.10;87.10
24035;DHT22;12242;50.952;4.678;2023-06-26T06:25:39;30.60;87.00
24035;DHT22;12242;50.952;4.678;2023-06-26T06:28:07;30.70;83.90
24035;DHT22;12242;50.952;4.678;2023-06-26T06:30:35;32.00;80.60
24035;DHT22;12242;50.952;4.678;2023-06-26T06:33:11;32.30;75.80
24035;DHT22;12242;50.952;4.678;2023-06-26T06:35:39;31.00;80.00
24035;DHT22;12242;50.952;4.678;2023-06-26T06:38:07;30.20;82.40
24035;DHT22;12242;50.952;4.678;2023-06-26T06:40:35;31.00;82.80
24035;DHT22;12242;50.952;4.678;2023-06-26T06:43:06;30.20;81.10
24035;DHT22;12242;50.952;4.678;2023-06-26T06:45:34;30.10;82.60
24035;DHT22;12242;50.952;4.678;2023-06-26T06:48:05;31.10;82.60
24035;DHT22;12242;50.952;4.678;2023-06-26T06:50:35;31.10;78.00
24035;DHT22;12242;50.952;4.678;2023-06-26T06:53:03;32.10;80.00
24035;DHT22;12242;50.952;4.678;2023-06-26T06:55:30;31.90;75.70
24035;DHT22;12242;50.952;4.678;2023-06-26T06:58:00;31.80;76.90
24035;DHT22;12242;50.952;4.678;2023-06-26T07:00:31;32.50;76.60
24035;DHT22;12242;50.952;4.678;2023-06-26T07:03:07;32.50;74.10
24035;DHT22;12242;50.952;4.678;2023-06-26T07:05:35;30.70;75.30
24035;DHT22;12242;50.952;4.678;2023-06-26T07:08:03;29.90;80.30
24035;DHT22;12242;50.952;4.678;2023-06-26T07:10:33;30.70;78.60
24035;DHT22;12242;50.952;4.678;2023-06-26T07:13:00;30.60;79.20
24035;DHT22;12242;50.952;4.678;2023-06-26T07:15:30;30.90;79.10
24035;DHT22;12242;50.952;4.678;2023-06-26T07:17:58;29.60;79.30
24035;DHT22;12242;50.952;4.678;2023-06-26T07:20:26;30.20;78.00
24035;DHT22;12242;50.952;4.678;2023-06-26T07:22:56;30.10;76.90
24035;DHT22;12242;50.952;4.678;2023-06-26T07:25:24;29.30;80.00
24035;DHT22;12242;50.952;4.678;2023-06-26T07:27:51;29.30;80.30
24035;DHT22;12242;50.952;4.678;2023-06-26T07:30:21;30.40;76.40
24035;DHT22;12242;50.952;4.678;2023-06-26T07:32:49;31.50;75.80
24035;DHT22;12242;50.952;4.678;2023-06-26T07:35:17;31.50;72.60
24035;DHT22;12242;50.952;4.678;2023-06-26T07:37:45;31.40;71.90
24035;DHT22;12242;50.952;4.678;2023-06-26T07:40:13;31.10;75.50
24035;DHT22;12242;50.952;4.678;2023-06-26T07:42:40;31.10;74.70
24035;DHT22;12242;50.952;4.678;2023-06-26T07:45:08;32.00;72.80
24035;DHT22;12242;50.952;4.678;2023-06-26T07:47:39;30.70;75.10
24035;DHT22;12242;50.952;4.678;2023-06-26T07:50:11;32.00;74.70
24035;DHT22;12242;50.952;4.678;2023-06-26T07:52:39;33.50;73.10
24035;DHT22;12242;50.952;4.678;2023-06-26T07:55:07;34.00;67.40
24035;DHT22;12242;50.952;4.678;2023-06-26T07:57:35;32.70;66.90
24035;DHT22;12242;50.952;4.678;2023-06-26T08:00:03;32.00;68.70
24035;DHT22;12242;50.952;4.678;2023-06-26T08:02:34;30.60;70.10
24035;DHT22;12242;50.952;4.678;2023-06-26T08:05:01;30.60;71.90
24035;DHT22;12242;50.952;4.678;2023-06-26T08:07:30;30.90;73.30
24035;DHT22;12242;50.952;4.678;2023-06-26T08:09:57;31.10;75.00
24035;DHT22;12242;50.952;4.678;2023-06-26T08:12:25;31.50;72.60
24035;DHT22;12242;50.952;4.678;2023-06-26T08:14:53;33.70;71.20
24035;DHT22;12242;50.952;4.678;2023-06-26T08:17:23;34.10;66.70
24035;DHT22;12242;50.952;4.678;2023-06-26T08:19:51;34.50;67.60
24035;DHT22;12242;50.952;4.678;2023-06-26T08:22:19;34.90;67.40
24035;DHT22;12242;50.952;4.678;2023-06-26T08:24:48;34.90;65.60
24035;DHT22;12242;50.952;4.678;2023-06-26T08:27:19;33.80;67.30
24035;DHT22;12242;50.952;4.678;2023-06-26T08:29:47;34.90;67.50
24035;DHT22;12242;50.952;4.678;2023-06-26T08:32:15;35.20;63.20
24035;DHT22;12242;50.952;4.678;2023-06-26T08:34:43;33.90;63.40
24035;DHT22;12242;50.952;4.678;2023-06-26T08:37:14;32.60;64.40
24035;DHT22;12242;50.952;4.678;2023-06-26T08:39:41;33.10;68.80
24035;DHT22;12242;50.952;4.678;2023-06-26T08:42:12;33.50;64.70
24035;DHT22;12242;50.952;4.678;2023-06-26T08:44:39;32.70;65.00
24035;DHT22;12242;50.952;4.678;2023-06-26T08:47:28;31.50;67.10
24035;DHT22;12242;50.952;4.678;2023-06-26T08:50:07;31.40;66.90
24035;DHT22;12242;50.952;4.678;2023-06-26T08:53:21;29.40;70.80
24035;DHT22;12242;50.952;4.678;2023-06-26T08:55:52;28.80;75.10
24035;DHT22;12242;50.952;4.678;2023-06-26T08:58:22;29.60;74.80
24035;DHT22;12242;50.952;4.678;2023-06-26T09:00:51;31.80;67.90
24035;DHT22;12242;50.952;4.678;2023-06-26T09:03:18;32.20;70.10
24035;DHT22;12242;50.952;4.678;2023-06-26T09:05:49;31.80;68.40
24035;DHT22;12242;50.952;4.678;2023-06-26T09:08:17;29.40;71.90
24035;DHT22;12242;50.952;4.678;2023-06-26T09:10:44;28.90;73.50
24035;DHT22;12242;50.952;4.678;2023-06-26T09:13:16;28.00;75.10
24035;DHT22;12242;50.952;4.678;2023-06-26T09:15:56;28.40;76.00
24035;DHT22;12242;50.952;4.678;2023-06-26T09:18:24;30.90;75.80
24035;DHT22;12242;50.952;4.678;2023-06-26T09:20:52;32.20;68.60
24035;DHT22;12242;50.952;4.678;2023-06-26T09:23:24;32.00;62.70
24035;DHT22;12242;50.952;4.678;2023-06-26T09:25:53;32.10;65.90
24035;DHT22;12242;50.952;4.678;2023-06-26T09:28:21;32.60;61.00
24035;DHT22;12242;50.952;4.678;2023-06-26T09:30:51;32.00;60.50
24035;DHT22;12242;50.952;4.678;2023-06-26T09:33:20;32.50;60.50
24035;DHT22;12242;50.952;4.678;2023-06-26T09:35:48;31.60;62.40
24035;DHT22;12242;50.952;4.678;2023-06-26T09:38:15;30.90;63.40
24035;DHT22;12242;50.952;4.678;2023-06-26T09:40:45;29.50;66.20
24035;DHT22;12242;50.952;4.678;2023-06-26T09:43:18;30.20;65.80
24035;DHT22;12242;50.952;4.678;2023-06-26T09:45:46;29.30;65.20
24035;DHT22;12242;50.952;4.678;2023-06-26T09:48:14;27.70;71.00
24035;DHT22;12242;50.952;4.678;2023-06-26T09:50:42;28.70;74.20
24035;DHT22;12242;50.952;4.678;2023-06-26T09:53:27;29.80;68.90
24035;DHT22;12242;50.952;4.678;2023-06-26T09:55:59;28.50;68.80
24035;DHT22;12242;50.952;4.678;2023-06-26T09:58:36;27.70;71.60
24035;DHT22;12242;50.952;4.678;2023-06-26T10:01:05;28.40;67.20
24035;DHT22;12242;50.952;4.678;2023-06-26T10:03:35;27.50;66.90
24035;DHT22;12242;50.952;4.678;2023-06-26T10:06:04;28.20;67.10
24035;DHT22;12242;50.952;4.678;2023-06-26T10:08:34;27.80;70.60
24035;DHT22;12242;50.952;4.678;2023-06-26T10:11:11;26.90;75.30
24035;DHT22;12242;50.952;4.678;2023-06-26T10:13:42;28.80;74.30
24035;DHT22;12242;50.952;4.678;2023-06-26T10:16:11;31.10;68.60
24035;DHT22;12242;50.952;4.678;2023-06-26T10:18:39;32.30;61.10
24035;DHT22;12242;50.952;4.678;2023-06-26T10:21:08;33.90;57.80
24035;DHT22;12242;50.952;4.678;2023-06-26T10:23:41;31.40;60.00
24035;DHT22;12242;50.952;4.678;2023-06-26T10:26:14;31.70;61.80
24035;DHT22;12242;50.952;4.678;2023-06-26T10:28:44;31.80;59.30
24035;DHT22;12242;50.952;4.678;2023-06-26T10:31:12;31.70;60.80
24035;DHT22;12242;50.952;4.678;2023-06-26T10:33:44;31.80;62.10
24035;DHT22;12242;50.952;4.678;2023-06-26T10:36:16;32.30;59.20
24035;DHT22;12242;50.952;4.678;2023-06-26T10:38:53;31.40;58.10
24035;DHT22;12242;50.952;4.678;2023-06-26T10:41:22;31.80;62.60
24035;DHT22;12242;50.952;4.678;2023-06-26T10:43:51;30.90;63.90
24035;DHT22;12242;50.952;4.678;2023-06-26T10:46:22;29.20;65.90
24035;DHT22;12242;50.952;4.678;2023-06-26T10:48:59;28.20;67.50
24035;DHT22;12242;50.952;4.678;2023-06-26T10:51:29;28.00;65.60
24035;DHT22;12242;50.952;4.678;2023-06-26T10:53:58;28.70;63.70
24035;DHT22;12242;50.952;4.678;2023-06-26T10:56:50;30.80;67.20
24035;DHT22;12242;50.952;4.678;2023-06-26T10:59:21;32.10;64.20
24035;DHT22;12242;50.952;4.678;2023-06-26T11:01:59;31.70;62.60
24035;DHT22;12242;50.952;4.678;2023-06-26T11:12:44;29.80;58.60
24035;DHT22;12242;50.952;4.678;2023-06-26T11:15:18;30.60;60.20
24035;DHT22;12242;50.952;4.678;2023-06-26T11:17:46;30.80;61.60
24035;DHT22;12242;50.952;4.678;2023-06-26T11:20:15;31.80;61.00
24035;DHT22;12242;50.952;4.678;2023-06-26T11:22:45;31.10;59.10
24035;DHT22;12242;50.952;4.678;2023-06-26T11:25:14;30.00;61.70
24035;DHT22;12242;50.952;4.678;2023-06-26T11:27:47;30.90;65.20
24035;DHT22;12242;50.952;4.678;2023-06-26T11:30:25;32.10;63.10
24035;DHT22;12242;50.952;4.678;2023-06-26T11:33:04;31.50;59.50
24035;DHT22;12242;50.952;4.678;2023-06-26T11:35:32;30.10;61.90
24035;DHT22;12242;50.952;4.678;2023-06-26T11:38:02;28.40;64.70
24035;DHT22;12242;50.952;4.678;2023-06-26T11:40:34;27.60;63.10
24035;DHT22;12242;50.952;4.678;2023-06-26T11:43:04;27.50;66.30
24035;DHT22;12242;50.952;4.678;2023-06-26T11:45:32;28.30;66.40
24035;DHT22;12242;50.952;4.678;2023-06-26T11:48:00;28.70;61.10
24035;DHT22;12242;50.952;4.678;2023-06-26T11:50:29;29.00;64.40
24035;DHT22;12242;50.952;4.678;2023-06-26T11:52:58;28.20;65.70
24035;DHT22;12242;50.952;4.678;2023-06-26T11:55:26;28.90;68.60
24035;DHT22;12242;50.952;4.678;2023-06-26T11:57:57;28.80;64.70
24035;DHT22;12242;50.952;4.678;2023-06-26T12:00:26;28.30;58.20
24035;DHT22;12242;50.952;4.678;2023-06-26T12:02:54;28.10;64.00
24035;DHT22;12242;50.952;4.678;2023-06-26T12:05:22;27.70;63.90
24035;DHT22;12242;50.952;4.678;2023-06-26T12:07:51;27.70;67.90
24035;DHT22;12242;50.952;4.678;2023-06-26T12:10:21;27.20;62.50
24035;DHT22;12242;50.952;4.678;2023-06-26T12:12:49;27.40;63.10
24035;DHT22;12242;50.952;4.678;2023-06-26T12:15:17;27.00;61.60
24035;DHT22;12242;50.952;4.678;2023-06-26T12:17:45;26.60;62.00
24035;DHT22;12242;50.952;4.678;2023-06-26T12:20:21;26.40;62.90
24035;DHT22;12242;50.952;4.678;2023-06-26T12:22:51;26.80;65.90
24035;DHT22;12242;50.952;4.678;2023-06-26T12:25:23;26.80;61.40
24035;DHT22;12242;50.952;4.678;2023-06-26T12:27:57;27.00;65.90
24035;DHT22;12242;50.952;4.678;2023-06-26T12:30:27;26.60;66.40
24035;DHT22;12242;50.952;4.678;2023-06-26T12:32:57;26.60;63.30
24035;DHT22;12242;50.952;4.678;2023-06-26T12:35:25;26.20;63.40
24035;DHT22;12242;50.952;4.678;2023-06-26T12:37:54;26.30;61.60
24035;DHT22;12242;50.952;4.678;2023-06-26T12:40:21;26.30;63.50
24035;DHT22;12242;50.952;4.678;2023-06-26T12:42:49;26.60;66.80
24035;DHT22;12242;50.952;4.678;2023-06-26T12:45:17;26.90;66.20
24035;DHT22;12242;50.952;4.678;2023-06-26T12:47:48;27.00;64.20
24035;DHT22;12242;50.952;4.678;2023-06-26T12:50:16;26.80;67.30
24035;DHT22;12242;50.952;4.678;2023-06-26T12:52:44;26.70;62.80
24035;DHT22;12242;50.952;4.678;2023-06-26T12:55:11;26.00;65.50
24035;DHT22;12242;50.952;4.678;2023-06-26T12:57:44;25.60;65.20
24035;DHT22;12242;50.952;4.678;2023-06-26T13:00:12;25.70;69.20
24035;DHT22;12242;50.952;4.678;2023-06-26T13:02:40;26.00;69.10
24035;DHT22;12242;50.952;4.678;2023-06-26T13:05:08;26.10;66.50
24035;DHT22;12242;50.952;4.678;2023-06-26T13:07:36;26.40;66.20
24035;DHT22;12242;50.952;4.678;2023-06-26T13:10:04;26.30;62.20
24035;DHT22;12242;50.952;4.678;2023-06-26T13:12:33;26.50;65.10
24035;DHT22;12242;50.952;4.678;2023-06-26T13:15:01;26.40;64.70
24035;DHT22;12242;50.952;4.678;2023-06-26T13:17:28;26.10;62.60
24035;DHT22;12242;50.952;4.678;2023-06-26T13:19:57;26.00;65.70
24035;DHT22;12242;50.952;4.678;2023-06-26T13:22:27;26.00;66.80
24035;DHT22;12242;50.952;4.678;2023-06-26T13:24:54;26.20;64.50
24035;DHT22;12242;50.952;4.678;2023-06-26T13:27:21;26.00;64.90
24035;DHT22;12242;50.952;4.678;2023-06-26T13:29:51;26.00;67.90
24035;DHT22;12242;50.952;4.678;2023-06-26T13:32:20;25.70;65.50
24035;DHT22;12242;50.952;4.678;2023-06-26T13:34:48;25.90;68.50
24035;DHT22;12242;50.952;4.678;2023-06-26T13:37:15;26.20;69.60
24035;DHT22;12242;50.952;4.678;2023-06-26T13:39:43;26.50;67.30
24035;DHT22;12242;50.952;4.678;2023-06-26T13:42:17;26.40;64.10
24035;DHT22;12242;50.952;4.678;2023-06-26T13:44:45;26.10;62.10
24035;DHT22;12242;50.952;4.678;2023-06-26T13:47:29;26.20;67.70
24035;DHT22;12242;50.952;4.678;2023-06-26T13:49:57;25.70;63.70
24035;DHT22;12242;50.952;4.678;2023-06-26T13:52:28;25.60;65.70
24035;DHT22;12242;50.952;4.678;2023-06-26T13:54:55;25.50;64.40
24035;DHT22;12242;50.952;4.678;2023-06-26T13:57:23;25.90;64.80
24035;DHT22;12242;50.952;4.678;2023-06-26T13:59:50;26.00;67.40
24035;DHT22;12242;50.952;4.678;2023-06-26T14:02:18;26.00;66.20
24035;DHT22;12242;50.952;4.678;2023-06-26T14:04:46;25.70;67.50
24035;DHT22;12242;50.952;4.678;2023-06-26T14:07:13;25.70;65.00
24035;DHT22;12242;50.952;4.678;2023-06-26T14:09:44;25.50;69.20
24035;DHT22;12242;50.952;4.678;2023-06-26T14:12:14;25.50;72.10
24035;DHT22;12242;50.952;4.678;2023-06-26T14:14:44;25.60;65.50
24035;DHT22;12242;50.952;4.678;2023-06-26T14:17:11;26.10;68.70
24035;DHT22;12242;50.952;4.678;2023-06-26T14:19:43;26.10;64.90
24035;DHT22;12242;50.952;4.678;2023-06-26T14:22:12;26.20;66.60
24035;DHT22;12242;50.952;4.678;2023-06-26T14:24:40;26.20;67.80
24035;DHT22;12242;50.952;4.678;2023-06-26T14:27:07;26.30;67.40
24035;DHT22;12242;50.952;4.678;2023-06-26T14:29:38;26.40;65.10
24035;DHT22;12242;50.952;4.678;2023-06-26T14:32:11;26.30;67.20
24035;DHT22;12242;50.952;4.678;2023-06-26T14:34:42;26.30;65.80
24035;DHT22;12242;50.952;4.678;2023-06-26T14:37:09;26.30;68.60
24035;DHT22;12242;50.952;4.678;2023-06-26T14:39:39;25.90;69.40
24035;DHT22;12242;50.952;4.678;2023-06-26T14:42:07;25.70;68.30
24035;DHT22;12242;50.952;4.678;2023-06-26T14:44:36;26.20;69.50
24035;DHT22;12242;50.952;4.678;2023-06-26T14:47:04;25.90;68.90
24035;DHT22;12242;50.952;4.678;2023-06-26T14:49:32;25.90;66.50
24035;DHT22;12242;50.952;4.678;2023-06-26T14:51:59;25.70;68.70
24035;DHT22;12242;50.952;4.678;2023-06-26T14:54:28;25.90;65.50
24035;DHT22;12242;50.952;4.678;2023-06-26T14:56:56;25.90;67.10
24035;DHT22;12242;50.952;4.678;2023-06-26T14:59:24;25.70;66.90
24035;DHT22;12242;50.952;4.678;2023-06-26T15:01:51;25.60;66.00
24035;DHT22;12242;50.952;4.678;2023-06-26T15:04:19;25.50;68.30
24035;DHT22;12242;50.952;4.678;2023-06-26T15:06:47;25.70;66.50
24035;DHT22;12242;50.952;4.678;2023-06-26T15:09:15;25.70;64.30
24035;DHT22;12242;50.952;4.678;2023-06-26T15:11:46;25.20;65.60
24035;DHT22;12242;50.952;4.678;2023-06-26T15:14:14;25.30;71.40
24035;DHT22;12242;50.952;4.678;2023-06-26T15:16:41;25.30;70.00
24035;DHT22;12242;50.952;4.678;2023-06-26T15:19:12;25.50;66.10
24035;DHT22;12242;50.952;4.678;2023-06-26T15:21:39;25.70;67.80
24035;DHT22;12242;50.952;4.678;2023-06-26T15:24:09;25.60;69.20
24035;DHT22;12242;50.952;4.678;2023-06-26T15:26:37;25.40;71.00
24035;DHT22;12242;50.952;4.678;2023-06-26T15:29:09;24.90;70.20
24035;DHT22;12242;50.952;4.678;2023-06-26T15:31:37;24.80;71.50
24035;DHT22;12242;50.952;4.678;2023-06-26T15:34:04;24.50;71.70
24035;DHT22;12242;50.952;4.678;2023-06-26T15:36:32;24.50;72.70
24035;DHT22;12242;50.952;4.678;2023-06-26T15:39:02;24.40;73.10
24035;DHT22;12242;50.952;4.678;2023-06-26T15:41:30;24.50;73.90
24035;DHT22;12242;50.952;4.678;2023-06-26T15:43:57;24.40;74.50
24035;DHT22;12242;50.952;4.678;2023-06-26T15:46:26;24.20;75.00
24035;DHT22;12242;50.952;4.678;2023-06-26T15:48:54;24.00;76.20
24035;DHT22;12242;50.952;4.678;2023-06-26T15:51:24;23.90;77.30
24035;DHT22;12242;50.952;4.678;2023-06-26T15:53:55;23.90;77.20
24035;DHT22;12242;50.952;4.678;2023-06-26T15:56:23;23.80;78.70
24035;DHT22;12242;50.952;4.678;2023-06-26T15:58:58;23.80;79.20